Time;durP1;ratioP1;P1;durP2;ratioP2;P2;SDS_P1;SDS_P2;PMS_P1;PMS_P2;Temp;Humidity;BMP_temperature;BMP_pressure;BME280_temperature;BME280_humidity;BME280_pressure;Samples;Min_cycle;Max_cycle;Signal;HPM_P1;HPM_P2
2021/08/09 05:48:21;;;;;;;9.40;5.25;;;13.10;99.90;;;;;;6213582;23;20414;-96
2021/08/09 07:16:26;;;;;;;3.00;1.30;;;18.90;99.90;;;;;;6180576;23;20925;-96
2021/08/09 07:19:11;;;;;;;4.82;1.40;;;18.80;99.90;;;;;;6204179;23;20447;-96
2021/08/09 07:21:59;;;;;;;3.33;1.05;;;18.80;99.90;;;;;;6209175;23;20888;-96
2021/08/09 07:24:52;;;;;;;3.97;1.17;;;18.80;99.90;;;;;;6232289;23;20371;-93
2021/08/09 07:39:35;;;;;;;3.38;0.98;;;18.10;99.90;;;;;;6151715;23;20397;-96
2021/08/09 07:42:04;;;;;;;3.90;1.10;;;18.10;99.90;;;;;;6209166;23;20374;-95
2021/08/09 07:48:20;;;;;;;4.25;1.40;;;18.30;99.90;;;;;;6231164;23;20392;-96
2021/08/09 07:50:51;;;;;;;3.72;1.30;;;18.70;99.90;;;;;;6202245;23;20463;-95
2021/08/09 07:53:18;;;;;;;4.45;1.38;;;18.90;99.90;;;;;;6199876;23;20390;-94
2021/08/09 07:55:47;;;;;;;3.63;1.30;;;18.90;99.90;;;;;;6225959;23;20767;-96
2021/08/09 07:58:14;;;;;;;3.17;1.23;;;18.80;99.90;;;;;;6171304;23;20403;-96
2021/08/09 08:00:41;;;;;;;3.83;1.13;;;18.70;99.90;;;;;;6197539;23;20478;-96
2021/08/09 08:03:10;;;;;;;3.20;1.20;;;18.60;99.90;;;;;;6197055;23;20753;-93
2021/08/09 08:06:20;;;;;;;3.10;1.03;;;18.40;99.90;;;;;;6200983;23;20388;-96
2021/08/09 08:20:06;;;;;;;3.10;1.20;;;18.60;99.90;;;;;;6161148;22;20359;-95
2021/08/09 08:23:07;;;;;;;5.25;1.13;;;18.80;99.90;;;;;;6169961;23;20375;-96
2021/08/09 08:25:52;;;;;;;4.35;1.35;;;19.00;99.90;;;;;;6170588;23;20382;-96
2021/08/09 08:28:26;;;;;;;5.80;1.17;;;19.20;99.90;;;;;;6166021;23;20387;-96
2021/08/09 08:31:15;;;;;;;2.40;1.00;;;19.00;99.90;;;;;;6174961;23;20379;-96
2021/08/09 08:36:31;;;;;;;2.80;1.10;;;19.70;99.90;;;;;;6219579;22;20391;-96
2021/08/09 08:39:00;;;;;;;4.55;1.27;;;20.00;99.90;;;;;;6257168;22;20377;-93
2021/08/09 08:59:47;;;;;;;4.47;1.20;;;19.50;99.90;;;;;;6161906;23;20479;-93
2021/08/09 09:02:39;;;;;;;3.28;1.40;;;19.30;99.90;;;;;;6166966;23;20420;-96
2021/08/09 09:05:19;;;;;;;5.13;1.40;;;19.40;99.90;;;;;;6195038;23;20393;-93
2021/08/09 09:08:01;;;;;;;4.50;1.00;;;19.70;99.90;;;;;;6162353;23;20688;-96
2021/08/09 09:10:36;;;;;;;5.22;1.13;;;19.90;99.90;;;;;;6163096;23;20396;-95
2021/08/09 09:13:17;;;;;;;3.63;1.30;;;20.10;99.90;;;;;;6164583;23;20389;-96
2021/08/09 09:21:34;;;;;;;8.30;1.40;;;20.20;99.90;;;;;;6193320;22;20532;-96
2021/08/09 09:24:30;;;;;;;5.43;1.40;;;20.60;99.90;;;;;;6193302;23;20384;-96
2021/08/09 09:27:02;;;;;;;4.07;1.20;;;20.60;99.90;;;;;;6152216;23;20462;-96
2021/08/09 09:36:50;;;;;;;5.05;1.60;;;20.10;99.90;;;;;;6192293;23;20412;-93
2021/08/09 09:39:43;;;;;;;4.30;1.85;;;20.20;99.90;;;;;;6189529;23;20395;-95
2021/08/09 09:42:15;;;;;;;4.22;1.60;;;20.60;99.90;;;;;;6188064;23;20475;-96
2021/08/09 09:44:49;;;;;;;4.78;1.60;;;20.50;99.90;;;;;;6187804;23;20392;-95
2021/08/09 09:47:23;;;;;;;2.80;1.40;;;20.40;99.90;;;;;;6188957;23;20389;-96
2021/08/09 09:52:55;;;;;;;5.63;1.60;;;20.50;99.90;;;;;;6234595;22;20395;-95
2021/08/09 09:55:57;;;;;;;4.38;1.40;;;20.60;99.90;;;;;;6219514;23;20383;-96
2021/08/09 09:58:37;;;;;;;2.58;1.60;;;20.80;99.90;;;;;;6225829;22;20392;-96
2021/08/09 10:02:02;;;;;;;6.32;1.63;;;21.20;99.90;;;;;;6223538;23;20399;-96
2021/08/09 10:07:25;;;;;;;3.58;1.50;;;21.70;99.90;;;;;;6225584;22;20460;-96
2021/08/09 10:09:54;;;;;;;3.78;1.20;;;21.50;99.90;;;;;;6226031;23;20392;-95
2021/08/09 10:12:29;;;;;;;2.67;1.40;;;21.20;99.90;;;;;;6229715;23;20405;-96
2021/08/09 10:15:10;;;;;;;3.78;1.25;;;20.80;99.90;;;;;;6167809;22;20495;-95
2021/08/09 11:04:23;;;;;;;2.97;1.10;;;21.50;99.90;;;;;;6197242;23;20421;-96
2021/08/09 11:07:54;;;;;;;1.98;1.10;;;21.50;99.90;;;;;;6170648;23;20388;-96
2021/08/09 11:11:00;;;;;;;3.13;1.15;;;21.40;99.90;;;;;;6158452;23;20389;-95
2021/08/09 11:20:04;;;;;;;;;;;;;;;;;;;;;
2021/08/09 12:18:25;;;;;;;2.78;1.20;;;25.50;99.90;;;;;;5078966;28;20379;-94
2021/08/09 12:21:15;;;;;;;2.10;0.93;;;24.90;99.90;;;;;;5075676;28;20912;-96
2021/08/09 12:23:58;;;;;;;4.50;1.08;;;25.20;98.80;;;;;;5076403;28;20424;-95
2021/08/09 12:26:29;;;;;;;3.45;1.00;;;25.60;99.90;;;;;;5080455;28;20420;-96
2021/08/09 12:29:00;;;;;;;1.88;1.20;;;25.60;98.80;;;;;;5079309;28;20424;-94
2021/08/09 12:31:47;;;;;;;3.35;1.20;;;25.70;98.50;;;;;;5078856;28;20421;-96
2021/08/09 12:34:22;;;;;;;3.17;0.90;;;26.00;96.70;;;;;;5075873;28;20967;-95
2021/08/09 12:36:50;;;;;;;2.83;1.10;;;26.50;97.50;;;;;;5075007;28;20592;-96
2021/08/09 12:39:35;;;;;;;2.15;1.10;;;26.60;97.00;;;;;;5077966;28;20451;-96
2021/08/09 12:42:17;;;;;;;2.33;1.10;;;26.20;98.20;;;;;;5075992;28;20427;-94
2021/08/09 12:44:45;;;;;;;3.55;1.00;;;26.70;96.50;;;;;;5076156;28;20413;-94
2021/08/09 12:47:13;;;;;;;2.58;1.00;;;26.90;96.00;;;;;;5078715;28;20409;-96
2021/08/09 12:49:41;;;;;;;4.75;1.17;;;26.70;93.70;;;;;;5079344;28;20417;-95
2021/08/09 12:52:09;;;;;;;2.15;1.00;;;26.30;98.50;;;;;;5080954;28;20425;-95
2021/08/09 12:54:45;;;;;;;2.90;1.05;;;25.80;97.50;;;;;;5081156;28;20404;-95
2021/08/09 13:00:43;;;;;;;2.03;1.03;;;26.40;96.00;;;;;;5080211;28;20411;-96
2021/08/09 13:03:11;;;;;;;2.30;1.15;;;27.00;97.80;;;;;;5080859;28;20446;-96
2021/08/09 13:05:38;;;;;;;2.75;1.13;;;27.10;93.90;;;;;;5077578;28;20421;-95
2021/08/09 13:08:06;;;;;;;2.42;1.10;;;26.90;95.30;;;;;;5078197;28;20435;-95
2021/08/09 13:10:33;;;;;;;3.63;1.00;;;26.50;92.80;;;;;;5078442;28;20500;-95
2021/08/09 13:13:07;;;;;;;2.20;1.00;;;26.30;94.20;;;;;;5083509;28;20524;-95
2021/08/09 13:15:41;;;;;;;1.83;1.10;;;26.80;96.70;;;;;;5082108;28;20427;-95
2021/08/09 13:18:10;;;;;;;2.53;1.00;;;26.80;93.00;;;;;;5049792;23;21018;-95
2021/08/09 13:21:15;;;;;;;2.53;1.10;;;26.20;92.30;;;;;;5038608;28;20480;-94
2021/08/09 13:24:37;;;;;;;1.90;0.95;;;25.90;95.00;;;;;;5038605;28;20410;-95
2021/08/09 13:27:59;;;;;;;2.00;0.90;;;25.80;96.10;;;;;;5065451;22;20458;-96
2021/08/09 13:30:43;;;;;;;3.03;0.90;;;26.90;94.50;;;;;;5053311;23;20430;-94
2021/08/09 13:33:28;;;;;;;3.33;1.02;;;26.90;94.30;;;;;;5024291;28;20463;-95
2021/08/09 13:48:52;;;;;;;2.60;1.10;;;28.30;90.80;;;;;;2451678;23;20643;-94
2021/08/09 13:51:41;;;;;;;4.63;1.30;;;28.50;90.70;;;;;;4909591;29;20441;-95
2021/08/09 13:54:28;;;;;;;3.73;1.20;;;28.50;89.50;;;;;;4921823;29;20406;-95
2021/08/09 13:57:17;;;;;;;3.47;1.10;;;28.30;94.80;;;;;;4908898;29;20445;-95
2021/08/09 14:00:30;;;;;;;4.75;1.30;;;28.50;93.60;;;;;;4907211;29;20431;-96
2021/08/09 14:03:15;;;;;;;2.55;1.20;;;28.40;90.10;;;;;;4911801;29;20926;-96
2021/08/09 14:05:59;;;;;;;2.90;1.30;;;28.10;92.30;;;;;;4909651;29;20421;-96
2021/08/09 14:08:26;;;;;;;3.60;1.25;;;27.90;92.70;;;;;;4909918;29;20425;-96
2021/08/09 14:10:53;;;;;;;1.80;1.10;;;28.20;91.30;;;;;;4911570;29;20435;-94
2021/08/09 14:13:26;;;;;;;4.00;1.37;;;28.50;91.30;;;;;;4906356;29;20779;-94
2021/08/09 14:15:55;;;;;;;2.75;1.10;;;28.40;90.00;;;;;;4913924;29;20462;-96
2021/08/09 14:18:43;;;;;;;5.20;1.38;;;28.20;92.00;;;;;;4916827;29;20423;-96
2021/08/09 14:21:20;;;;;;;2.88;1.17;;;27.70;91.90;;;;;;4917608;29;20455;-94
2021/08/09 14:24:11;;;;;;;1.75;1.08;;;28.10;92.70;;;;;;4918227;29;20427;-94
2021/08/09 14:26:41;;;;;;;3.20;1.35;;;28.10;89.70;;;;;;4921146;29;20434;-94
2021/08/09 14:29:10;;;;;;;3.45;1.30;;;27.90;89.70;;;;;;4919539;29;20434;-95
2021/08/09 14:35:13;;;;;;;2.87;1.20;;;28.20;90.60;;;;;;4949454;23;20482;-95
2021/08/09 14:38:11;;;;;;;4.13;1.25;;;28.80;90.20;;;;;;4964656;28;20522;-96
2021/08/09 14:40:52;;;;;;;2.60;1.35;;;28.80;91.40;;;;;;4981507;28;20424;-95
2021/08/09 14:43:25;;;;;;;2.08;1.20;;;28.50;91.30;;;;;;4969550;28;20860;-96
2021/08/09 14:46:00;;;;;;;2.67;1.15;;;28.60;90.40;;;;;;4069920;23;21607;-96
2021/08/09 14:48:27;;;;;;;1.80;1.20;;;28.50;90.50;;;;;;4980199;28;20422;-92
2021/08/09 14:50:54;;;;;;;4.03;1.07;;;28.70;89.30;;;;;;4985662;28;20422;-91
2021/08/09 14:53:22;;;;;;;2.70;1.23;;;28.70;88.70;;;;;;4981114;28;20406;-90
2021/08/09 14:55:49;;;;;;;4.97;1.30;;;28.90;88.30;;;;;;4981235;28;21032;-93
2021/08/09 14:58:16;;;;;;;2.78;1.50;;;29.00;86.70;;;;;;4983887;28;20464;-92
2021/08/09 15:00:44;;;;;;;3.87;1.20;;;29.00;89.50;;;;;;4991822;23;20434;-91
2021/08/09 15:03:14;;;;;;;3.78;1.10;;;28.90;90.60;;;;;;5010080;23;20501;-91
2021/08/09 15:05:41;;;;;;;5.38;1.70;;;29.10;87.30;;;;;;5003482;28;20436;-91
2021/08/09 15:08:08;;;;;;;3.55;2.00;;;28.80;89.20;;;;;;5003260;28;20498;-92
2021/08/09 15:10:36;;;;;;;4.32;1.20;;;28.80;87.30;;;;;;5000975;28;20428;-92
2021/08/09 15:13:04;;;;;;;2.35;1.20;;;28.50;89.70;;;;;;5001830;28;20404;-91
2021/08/09 15:15:33;;;;;;;4.93;1.30;;;28.40;87.50;;;;;;5007910;23;20439;-91
2021/08/09 15:18:01;;;;;;;4.70;1.40;;;28.50;88.30;;;;;;4999245;28;20436;-91
2021/08/09 15:20:28;;;;;;;3.40;1.40;;;28.80;89.20;;;;;;4998487;28;20425;-92
2021/08/09 15:22:55;;;;;;;3.90;1.25;;;28.90;89.70;;;;;;4998013;28;20895;-92
2021/08/09 15:25:22;;;;;;;1.80;1.13;;;29.00;87.30;;;;;;4997501;28;20823;-92
2021/08/09 15:27:49;;;;;;;3.03;1.05;;;28.70;85.40;;;;;;4998460;28;20487;-93
2021/08/09 15:30:16;;;;;;;3.50;1.30;;;28.60;90.10;;;;;;4998225;28;20428;-91
2021/08/09 15:35:59;;;;;;;5.25;1.30;;;28.60;91.00;;;;;;5189427;23;20430;-96
2021/08/09 15:38:26;;;;;;;3.33;1.20;;;28.80;86.30;;;;;;4999417;28;20444;-96
2021/08/09 15:40:53;;;;;;;3.57;1.27;;;28.90;86.20;;;;;;4999515;28;20425;-95
2021/08/09 15:43:21;;;;;;;6.00;1.08;;;28.70;86.80;;;;;;5000342;28;20814;-95
2021/08/09 15:45:48;;;;;;;5.15;1.42;;;28.60;86.30;;;;;;4997807;28;20505;-96
2021/08/09 15:48:24;;;;;;;5.07;1.48;;;28.60;86.60;;;;;;5015440;28;20500;-96
2021/08/09 15:50:52;;;;;;;1.92;1.35;;;28.70;85.60;;;;;;4997637;28;20488;-96
2021/08/09 15:53:24;;;;;;;2.53;1.30;;;28.60;86.70;;;;;;4998123;28;20502;-96
2021/08/09 15:55:55;;;;;;;5.82;1.40;;;28.50;87.40;;;;;;4998212;28;20431;-95
2021/08/09 15:58:23;;;;;;;4.18;1.30;;;28.70;88.70;;;;;;4998017;28;20516;-96
2021/08/09 16:00:50;;;;;;;2.72;1.20;;;28.90;84.50;;;;;;4997568;28;20447;-96
2021/08/09 16:03:17;;;;;;;3.15;1.38;;;28.70;84.80;;;;;;4997794;28;20804;-96
2021/08/09 16:05:49;;;;;;;2.83;1.30;;;28.50;86.90;;;;;;4998695;28;20455;-96
2021/08/09 16:08:16;;;;;;;7.32;1.55;;;28.10;85.30;;;;;;4997131;28;20780;-94
2021/08/09 16:10:43;;;;;;;2.58;1.50;;;28.00;87.00;;;;;;4997902;28;20421;-96
2021/08/09 16:13:11;;;;;;;4.43;1.30;;;28.00;86.90;;;;;;4997639;28;20460;-95
2021/08/09 16:15:39;;;;;;;3.05;1.30;;;28.00;85.40;;;;;;4997423;28;20421;-96
2021/08/09 16:18:26;;;;;;;3.45;1.20;;;27.90;86.00;;;;;;5000012;28;20484;-95
2021/08/09 16:20:53;;;;;;;3.67;1.35;;;27.80;86.80;;;;;;4996848;28;20417;-96
2021/08/09 16:23:20;;;;;;;4.97;1.48;;;27.80;90.30;;;;;;5012979;28;20460;-96
2021/08/09 16:25:48;;;;;;;3.00;1.10;;;27.80;88.40;;;;;;5013699;28;20424;-96
2021/08/09 16:28:15;;;;;;;4.70;1.40;;;27.20;87.70;;;;;;4998062;28;20430;-96
2021/08/09 16:30:42;;;;;;;4.18;1.23;;;26.80;90.30;;;;;;4997676;28;20516;-95
2021/08/09 16:33:09;;;;;;;4.50;1.30;;;26.50;90.40;;;;;;4996866;28;20500;-96
2021/08/09 16:35:38;;;;;;;2.70;1.40;;;26.40;91.00;;;;;;4997274;28;20441;-96
2021/08/09 16:38:06;;;;;;;4.07;1.45;;;26.30;91.20;;;;;;4998369;28;20440;-96
2021/08/09 16:40:36;;;;;;;3.75;1.30;;;26.20;90.90;;;;;;4997355;28;20839;-95
2021/08/09 16:43:04;;;;;;;2.88;1.48;;;26.00;91.70;;;;;;4997524;28;20756;-95
2021/08/09 16:45:32;;;;;;;2.67;1.30;;;25.90;91.80;;;;;;4997263;28;20425;-96
2021/08/09 16:48:00;;;;;;;4.70;1.50;;;26.20;92.40;;;;;;4998149;28;20440;-96
2021/08/09 16:50:28;;;;;;;4.45;1.58;;;25.90;92.30;;;;;;4999743;28;20424;-96
2021/08/09 16:52:55;;;;;;;5.57;1.67;;;25.90;92.10;;;;;;4996145;28;20451;-95
2021/08/09 16:55:23;;;;;;;5.10;1.70;;;25.90;92.00;;;;;;4997438;28;20833;-96
2021/08/09 16:57:53;;;;;;;5.30;1.40;;;25.80;92.60;;;;;;4997476;28;20467;-96
2021/08/09 17:00:29;;;;;;;3.80;1.70;;;25.80;93.20;;;;;;4999423;28;20420;-96
2021/08/09 17:03:16;;;;;;;2.55;1.60;;;25.80;93.30;;;;;;4999565;28;20503;-95
2021/08/09 17:05:51;;;;;;;4.50;1.70;;;25.80;93.60;;;;;;5003692;28;20436;-96
2021/08/09 17:08:34;;;;;;;2.97;1.63;;;25.60;94.00;;;;;;5003416;28;20432;-96
2021/08/09 17:11:03;;;;;;;5.70;1.80;;;25.60;93.80;;;;;;5001556;28;20982;-96
2021/08/09 17:13:39;;;;;;;4.80;1.60;;;25.30;94.00;;;;;;5002909;28;20428;-96
2021/08/09 17:16:50;;;;;;;4.70;1.80;;;24.90;93.90;;;;;;5001744;28;20429;-96
2021/08/09 17:19:17;;;;;;;4.20;1.50;;;24.80;94.80;;;;;;5001060;28;20940;-96
2021/08/09 18:47:06;;;;;;;7.88;3.28;;;16.60;99.90;;;;;;5428030;23;20397;-96
2021/08/09 21:20:35;;;;;;;3.45;1.90;;;15.90;99.90;;;;;;2955533;23;20702;-95
2021/08/09 21:23:57;;;;;;;12.70;1.57;;;15.90;99.90;;;;;;1038221;23;20583;-96
2021/08/09 21:26:37;;;;;;;7.82;1.50;;;15.90;99.90;;;;;;4937742;23;20844;-96
2021/08/09 21:29:15;;;;;;;5.47;1.67;;;15.60;99.90;;;;;;4965189;28;20439;-95
2021/08/09 21:31:46;;;;;;;5.88;1.80;;;15.60;99.90;;;;;;4969665;23;20441;-95
2021/08/09 21:34:25;;;;;;;4.85;1.67;;;15.70;99.90;;;;;;4981346;28;20416;-95
2021/08/09 21:40:32;;;;;;;4.32;1.58;;;15.40;99.90;;;;;;4964918;28;20432;-95
2021/08/09 21:43:08;;;;;;;5.35;1.42;;;15.40;99.90;;;;;;4949892;28;20430;-95
2021/08/09 21:45:39;;;;;;;2.83;1.48;;;15.40;99.90;;;;;;4948719;28;20437;-96
2021/08/09 21:48:12;;;;;;;3.73;1.80;;;15.50;99.90;;;;;;4949469;28;20520;-96
2021/08/09 21:51:29;;;;;;;4.47;1.90;;;15.50;99.90;;;;;;4952409;28;20433;-96
2021/08/09 21:54:09;;;;;;;6.00;2.22;;;15.40;99.90;;;;;;4873941;29;20444;-95
2021/08/09 21:56:51;;;;;;;7.27;2.50;;;15.40;99.90;;;;;;4929486;23;20451;-96
2021/08/09 22:02:28;;;;;;;5.23;2.30;;;15.50;99.90;;;;;;5144448;23;20546;-95
2021/08/09 22:05:05;;;;;;;6.30;2.53;;;15.50;99.90;;;;;;5076903;23;20438;-95
2021/08/09 22:13:32;;;;;;;8.68;2.67;;;15.10;99.90;;;;;;4960755;28;20434;-95
2021/08/09 22:18:59;;;;;;;5.80;3.00;;;15.10;99.90;;;;;;5062895;23;20438;-96
2021/08/09 22:21:34;;;;;;;6.22;2.92;;;15.00;99.90;;;;;;5016405;23;20468;-96
2021/08/09 22:24:09;;;;;;;7.13;3.00;;;15.00;99.90;;;;;;4944325;29;20785;-94
2021/08/09 22:26:51;;;;;;;5.43;3.20;;;14.80;99.90;;;;;;4969937;23;20453;-96
2021/08/09 22:29:35;;;;;;;6.47;3.55;;;14.90;99.90;;;;;;4967602;23;20922;-96
2021/08/09 22:32:13;;;;;;;7.93;3.83;;;14.90;99.90;;;;;;4943177;29;20446;-95
2021/08/09 22:34:46;;;;;;;6.47;3.57;;;15.00;99.90;;;;;;4943545;29;20494;-95
2021/08/09 22:37:44;;;;;;;8.63;3.87;;;14.90;99.90;;;;;;5003692;23;20440;-96
2021/08/09 22:40:20;;;;;;;6.82;3.92;;;15.00;99.90;;;;;;4969729;23;20449;-94
2021/08/09 22:42:52;;;;;;;6.15;3.33;;;15.00;99.90;;;;;;4948059;28;20433;-96
2021/08/09 22:45:51;;;;;;;;;;;;;;;;;;;;;
2021/08/09 23:11:05;;;;;;;;;;;;;;;;;;;;;
2021/08/09 23:18:00;;;;;;;6.17;3.50;;;15.50;99.90;;;;;;4937925;29;20427;-95
2021/08/09 23:21:01;;;;;;;8.70;3.67;;;15.50;99.90;;;;;;4917119;29;20440;-96
2021/08/09 23:26:58;;;;;;;7.63;3.92;;;15.40;99.90;;;;;;4947243;23;20522;31
2021/08/09 23:29:39;;;;;;;7.20;3.85;;;15.50;99.90;;;;;;4900564;29;20418;-95
2021/08/09 23:32:12;;;;;;;5.60;3.88;;;15.50;99.90;;;;;;4908817;29;20439;-96
2021/08/09 23:37:46;;;;;;;5.30;3.40;;;15.70;99.90;;;;;;4914207;23;20500;-95
2021/08/09 23:40:24;;;;;;;6.35;3.40;;;15.70;99.90;;;;;;4941287;28;20502;-96
2021/08/09 23:43:07;;;;;;;7.93;3.33;;;15.70;99.90;;;;;;4970600;23;20452;-96
2021/08/09 23:46:07;;;;;;;7.35;3.63;;;15.60;99.90;;;;;;4980367;23;20455;-96
